Sunset Hill, Washington
Current Conditions -  °F | °C
As of 3:53 PM on Friday 28 Nov 2014 (Local Time) from KGEG Reporting Station
Scattered Clouds Scattered Clouds  
Wind Chill: 50°   Ceiling: Unl
Heat Index: 50°   Visibility: 10mi
Dew Point: 41°   Wind: 23mph
Humidity: 71%   Direction: 200°SSW
Pressure: 29.29"   Gusts: 37mph
Location:  47.657°N, 117.544°W
Report Text: KGEG 282353Z 20020G32KT 10SM FEW050 SCT070 SCT080 10/05 A2929 RMK AO2 PK WND 21035/2314 RAE44 SLP919 P0001 60001 T01000050 10111 20094 58032
Loading
Personal Weather Stations






























Interactive Weather Map New forecast layout! Learn more

10-Day Weather Forecast

Advertisements
Track Severe Weather on mobile